Time;durP1;ratioP1;P1;durP2;ratioP2;P2;SDS_P1;SDS_P2;PMS_P1;PMS_P2;Temp;Humidity;BMP_temperature;BMP_pressure;BME280_temperature;BME280_humidity;BME280_pressure;Samples;Min_cycle;Max_cycle;Signal;HPM_P1;HPM_P2
2023/05/17 00:00:54;;;;;;;2.23;1.60;;;6.50;99.90;;;;;;5129312;28;20275;-72
2023/05/17 00:03:20;;;;;;;3.60;2.17;;;6.50;99.90;;;;;;5129276;28;20196;-72
2023/05/17 00:05:45;;;;;;;6.13;1.40;;;6.60;99.90;;;;;;5129313;27;20664;-72
2023/05/17 00:08:11;;;;;;;5.30;1.63;;;6.40;99.90;;;;;;5129437;28;20185;-72
2023/05/17 00:10:37;;;;;;;3.93;1.63;;;6.30;99.90;;;;;;5129709;28;20192;-73
2023/05/17 00:13:02;;;;;;;2.20;1.70;;;6.20;99.90;;;;;;5129211;27;20258;-72
2023/05/17 00:15:28;;;;;;;3.93;1.50;;;6.20;99.90;;;;;;5110346;27;20557;-73
2023/05/17 00:17:54;;;;;;;4.60;1.43;;;6.30;99.90;;;;;;5129469;27;20422;-73
2023/05/17 00:20:20;;;;;;;6.23;1.87;;;6.40;99.90;;;;;;5097490;27;20434;-73
2023/05/17 00:22:46;;;;;;;9.60;2.27;;;6.50;99.90;;;;;;5132931;27;20587;-73
2023/05/17 00:25:12;;;;;;;3.33;1.77;;;6.50;99.90;;;;;;5133362;27;20712;-73
2023/05/17 00:27:38;;;;;;;4.27;1.43;;;6.40;99.90;;;;;;5114048;27;20254;-72
2023/05/17 00:30:04;;;;;;;3.87;1.03;;;6.30;99.90;;;;;;5114405;27;20419;-72
2023/05/17 00:32:30;;;;;;;2.50;1.47;;;6.40;99.90;;;;;;5132528;27;20521;-72
2023/05/17 00:34:56;;;;;;;2.40;1.40;;;6.40;99.90;;;;;;5114192;27;20442;-73
2023/05/17 00:37:21;;;;;;;2.70;1.50;;;6.40;99.90;;;;;;5132418;27;20201;-72
2023/05/17 00:39:47;;;;;;;10.37;2.73;;;6.50;99.90;;;;;;5114006;27;20177;-72
2023/05/17 00:42:13;;;;;;;5.40;1.60;;;6.50;99.90;;;;;;5132331;27;20279;-72
2023/05/17 00:44:39;;;;;;;1.73;1.20;;;6.50;99.90;;;;;;5132263;27;20188;-72
2023/05/17 00:47:05;;;;;;;8.07;1.90;;;6.40;99.90;;;;;;5132099;27;20942;-72
2023/05/17 00:49:30;;;;;;;4.87;1.53;;;6.50;99.90;;;;;;5132230;27;20486;-73
2023/05/17 00:51:57;;;;;;;2.70;1.57;;;6.30;99.90;;;;;;5132146;27;21066;-73
2023/05/17 00:54:24;;;;;;;3.40;1.10;;;6.20;99.90;;;;;;5132147;27;20177;-72
2023/05/17 00:56:51;;;;;;;3.03;1.87;;;6.20;99.90;;;;;;5113266;27;20442;-73
2023/05/17 00:59:17;;;;;;;3.80;1.33;;;6.10;99.90;;;;;;5132149;27;20422;-73
2023/05/17 01:01:43;;;;;;;6.13;1.80;;;6.00;99.90;;;;;;5132106;27;20426;-74
2023/05/17 01:04:09;;;;;;;1.63;1.13;;;6.00;99.90;;;;;;5132109;27;20181;-73
2023/05/17 01:06:36;;;;;;;3.60;1.20;;;6.10;99.90;;;;;;5131864;27;20942;-73
2023/05/17 01:09:02;;;;;;;3.10;1.60;;;6.20;99.90;;;;;;5131994;27;20472;-74
2023/05/17 01:11:47;;;;;;;3.00;1.60;;;6.20;99.90;;;;;;5131841;27;20472;-73
2023/05/17 01:14:56;;;;;;;3.50;1.47;;;6.20;99.90;;;;;;5131896;27;20979;-73
2023/05/17 01:17:36;;;;;;;3.53;1.40;;;6.30;99.90;;;;;;5131740;27;20433;-74
2023/05/17 01:20:17;;;;;;;1.80;1.07;;;6.30;99.90;;;;;;5131689;27;20402;-73
2023/05/17 01:22:47;;;;;;;4.00;1.70;;;6.30;99.90;;;;;;5131817;27;20420;-74
2023/05/17 01:25:35;;;;;;;7.50;1.50;;;6.20;99.90;;;;;;5131607;27;20475;-74
2023/05/17 01:28:03;;;;;;;1.90;1.10;;;6.20;99.90;;;;;;5061483;27;20471;-74
2023/05/17 01:30:32;;;;;;;8.53;2.00;;;6.20;99.90;;;;;;5111686;27;20422;-74
2023/05/17 01:32:59;;;;;;;8.07;1.53;;;6.10;99.90;;;;;;5131429;27;20414;-74
2023/05/17 01:35:25;;;;;;;4.43;1.30;;;6.10;99.90;;;;;;5131412;27;20493;-74
2023/05/17 01:37:54;;;;;;;3.03;1.30;;;6.00;99.90;;;;;;5112830;27;20785;-74
2023/05/17 01:40:20;;;;;;;6.20;1.63;;;6.00;99.90;;;;;;5131257;27;20416;-74
2023/05/17 01:43:03;;;;;;;3.23;1.20;;;6.00;99.90;;;;;;5130983;27;20444;-73
2023/05/17 01:45:42;;;;;;;7.70;1.70;;;5.90;99.90;;;;;;5112564;27;20413;-74
2023/05/17 01:48:25;;;;;;;2.20;1.37;;;6.00;99.90;;;;;;5131280;27;20403;-73
2023/05/17 01:50:53;;;;;;;6.63;1.87;;;6.00;99.90;;;;;;5131100;27;20458;-72
2023/05/17 01:53:31;;;;;;;9.77;1.40;;;5.90;99.90;;;;;;5130965;27;20448;-70
2023/05/17 01:56:07;;;;;;;2.67;1.40;;;5.90;99.90;;;;;;5112576;27;20561;-72
2023/05/17 01:58:42;;;;;;;4.00;1.63;;;5.90;99.90;;;;;;5131083;27;20434;-72
2023/05/17 02:01:09;;;;;;;2.53;1.20;;;5.90;99.90;;;;;;5130917;27;20414;-72
2023/05/17 02:03:34;;;;;;;5.57;1.53;;;5.90;99.90;;;;;;5112598;27;20419;-73
2023/05/17 02:06:00;;;;;;;3.27;1.40;;;5.90;99.90;;;;;;5130834;27;20814;-73
2023/05/17 02:08:25;;;;;;;3.57;1.60;;;5.80;99.90;;;;;;5131079;27;20683;-72
2023/05/17 02:10:51;;;;;;;5.37;1.30;;;5.60;99.90;;;;;;5131406;27;20208;-72
2023/05/17 02:13:17;;;;;;;1.87;1.47;;;5.60;99.90;;;;;;5130979;27;20744;-73
2023/05/17 02:15:42;;;;;;;1.77;1.10;;;5.50;99.90;;;;;;5112123;27;20216;-73
2023/05/17 02:18:09;;;;;;;7.23;1.50;;;5.50;99.90;;;;;;5130738;27;20192;-73
2023/05/17 02:20:34;;;;;;;4.07;1.30;;;5.30;99.90;;;;;;5112272;27;20185;-73
2023/05/17 02:23:00;;;;;;;3.67;1.30;;;5.20;99.90;;;;;;5130515;27;20410;-73
2023/05/17 02:25:25;;;;;;;6.67;1.57;;;5.10;99.90;;;;;;5094834;27;20188;-73
2023/05/17 02:27:51;;;;;;;4.47;2.00;;;5.00;99.90;;;;;;5130510;27;20239;-72
2023/05/17 02:30:17;;;;;;;3.73;1.77;;;4.90;99.90;;;;;;5130362;27;20181;-72
2023/05/17 02:32:42;;;;;;;3.37;1.30;;;5.00;99.90;;;;;;5111849;27;20242;-72
2023/05/17 02:35:08;;;;;;;2.07;1.30;;;5.10;99.90;;;;;;5130568;27;20205;-72
2023/05/17 02:37:34;;;;;;;2.43;1.30;;;5.20;99.90;;;;;;5111763;27;20201;-72
2023/05/17 02:39:59;;;;;;;3.97;1.60;;;5.20;99.90;;;;;;5130651;27;20430;-72
2023/05/17 02:42:25;;;;;;;4.30;1.47;;;5.10;99.90;;;;;;5111803;27;20208;-72
2023/05/17 02:44:53;;;;;;;1.60;1.33;;;5.10;99.90;;;;;;5130464;27;20215;-72
2023/05/17 02:47:20;;;;;;;1.40;1.30;;;5.10;99.90;;;;;;5130481;27;20582;-72
2023/05/17 02:49:46;;;;;;;8.73;1.93;;;5.00;99.90;;;;;;5111926;27;20514;-72
2023/05/17 02:52:11;;;;;;;3.80;1.93;;;4.90;99.90;;;;;;5130659;27;20462;-72
2023/05/17 02:54:37;;;;;;;2.70;1.90;;;5.00;99.90;;;;;;5130768;27;20509;-73
2023/05/17 02:57:03;;;;;;;6.60;2.07;;;5.00;99.90;;;;;;5130629;27;20305;-74
2023/05/17 02:59:28;;;;;;;12.90;2.10;;;4.80;99.90;;;;;;5094813;27;20189;-74
2023/05/17 03:01:54;;;;;;;8.90;1.67;;;4.60;99.90;;;;;;5111722;27;20425;-73
2023/05/17 03:04:20;;;;;;;1.93;1.60;;;4.40;99.90;;;;;;5094813;27;20204;-73
2023/05/17 03:06:45;;;;;;;5.60;2.00;;;4.40;99.90;;;;;;5129988;27;20204;-73
2023/05/17 03:09:11;;;;;;;3.77;1.70;;;4.50;99.90;;;;;;5111789;27;20188;-74
2023/05/17 03:11:36;;;;;;;2.57;1.53;;;4.60;99.90;;;;;;5094806;27;20266;-72
2023/05/17 03:14:02;;;;;;;10.13;1.67;;;4.60;99.90;;;;;;5130414;27;20263;-72
2023/05/17 03:16:27;;;;;;;2.60;1.53;;;4.50;99.90;;;;;;5130149;27;20196;-73
2023/05/17 03:18:53;;;;;;;6.93;1.33;;;4.60;99.90;;;;;;5094951;28;20188;-73
2023/05/17 03:21:19;;;;;;;5.23;1.37;;;4.60;99.90;;;;;;5112157;27;20192;-73
2023/05/17 03:23:44;;;;;;;3.10;1.60;;;4.60;99.90;;;;;;5130295;27;20181;-73
2023/05/17 03:26:10;;;;;;;5.13;1.50;;;4.50;99.90;;;;;;5130467;27;20687;-73
2023/05/17 03:28:35;;;;;;;2.60;1.50;;;4.50;99.90;;;;;;5111918;28;20175;-74
2023/05/17 03:31:01;;;;;;;9.60;2.10;;;4.60;99.90;;;;;;5130332;28;20237;-74
2023/05/17 03:33:27;;;;;;;6.07;1.50;;;4.60;99.90;;;;;;5112091;28;20187;-73
2023/05/17 03:35:52;;;;;;;2.53;1.50;;;4.60;99.90;;;;;;5094841;28;20205;-73
2023/05/17 03:38:18;;;;;;;3.80;1.57;;;4.60;99.90;;;;;;5130195;28;20183;-73
2023/05/17 03:40:43;;;;;;;9.10;1.60;;;4.60;99.90;;;;;;5130134;27;20594;-73
2023/05/17 03:43:09;;;;;;;1.97;1.10;;;4.50;99.90;;;;;;5130323;28;20195;-73
2023/05/17 03:45:34;;;;;;;6.80;1.30;;;4.50;99.90;;;;;;5111861;27;20207;-73
2023/05/17 03:48:00;;;;;;;3.60;1.20;;;4.50;99.90;;;;;;5112028;28;20189;-73
2023/05/17 03:50:26;;;;;;;7.10;1.67;;;4.50;99.90;;;;;;5130299;27;20728;-73
2023/05/17 03:52:51;;;;;;;1.93;1.50;;;4.60;99.90;;;;;;5112224;27;20215;-74
2023/05/17 03:55:17;;;;;;;1.63;1.37;;;4.50;99.90;;;;;;5115988;27;20191;-73
2023/05/17 03:57:42;;;;;;;2.30;1.23;;;4.50;99.90;;;;;;5116009;27;20179;-73
2023/05/17 04:00:10;;;;;;;3.60;1.90;;;4.60;99.90;;;;;;5134910;27;20555;-71
2023/05/17 04:02:36;;;;;;;2.30;1.33;;;4.60;99.90;;;;;;5116567;27;20191;-74
2023/05/17 04:05:01;;;;;;;12.53;1.80;;;4.60;99.90;;;;;;5134547;27;20417;-73
2023/05/17 04:07:27;;;;;;;5.83;1.80;;;4.70;99.90;;;;;;5134546;27;20291;-73
2023/05/17 04:10:01;;;;;;;4.47;1.40;;;4.70;99.90;;;;;;5116439;27;20236;-73
2023/05/17 04:12:27;;;;;;;1.83;1.30;;;4.70;99.90;;;;;;5134291;27;20461;-73
2023/05/17 04:14:52;;;;;;;1.80;1.30;;;4.70;99.90;;;;;;5133935;27;20418;-73
2023/05/17 04:17:18;;;;;;;9.40;1.30;;;4.70;99.90;;;;;;5133829;27;20215;-73
2023/05/17 04:19:44;;;;;;;4.70;1.53;;;4.70;99.90;;;;;;5098305;27;20279;-73
2023/05/17 04:22:09;;;;;;;8.47;1.27;;;4.70;99.90;;;;;;5134127;27;20613;-72
2023/05/17 04:24:35;;;;;;;3.83;1.20;;;4.70;99.90;;;;;;5133144;27;20680;-73
2023/05/17 04:27:03;;;;;;;4.30;1.40;;;4.80;99.90;;;;;;5132046;27;20545;-73
2023/05/17 04:29:28;;;;;;;3.10;1.40;;;4.80;99.90;;;;;;5131541;27;20183;-72
2023/05/17 04:31:54;;;;;;;11.53;1.73;;;4.90;99.90;;;;;;5133028;27;20519;-73
2023/05/17 04:34:22;;;;;;;2.90;1.13;;;4.90;99.90;;;;;;5119357;27;20648;-72
2023/05/17 04:36:48;;;;;;;4.13;1.10;;;5.00;99.90;;;;;;5133726;27;20203;-72
2023/05/17 04:39:14;;;;;;;2.50;0.87;;;5.10;99.90;;;;;;5136507;27;20188;-72
2023/05/17 04:41:39;;;;;;;4.13;1.20;;;5.10;99.90;;;;;;5132955;27;20457;-72
2023/05/17 04:44:06;;;;;;;1.83;1.40;;;5.10;99.90;;;;;;5131849;27;20418;-72
2023/05/17 04:46:32;;;;;;;5.97;1.20;;;5.10;99.90;;;;;;5113140;27;20197;-72
2023/05/17 04:48:57;;;;;;;1.77;1.20;;;5.20;99.90;;;;;;5131802;27;20426;-72
2023/05/17 04:51:23;;;;;;;6.00;1.70;;;5.30;99.90;;;;;;5112804;27;20454;-72
2023/05/17 04:53:48;;;;;;;4.63;1.40;;;5.30;99.90;;;;;;5096024;27;20187;-72
2023/05/17 04:56:15;;;;;;;2.90;1.60;;;5.40;99.90;;;;;;5131597;27;20208;-72
2023/05/17 04:58:40;;;;;;;2.47;1.23;;;5.50;99.90;;;;;;5131602;27;20260;-75
2023/05/17 05:01:06;;;;;;;4.13;1.80;;;5.50;99.90;;;;;;5131728;27;20823;-73
2023/05/17 05:03:32;;;;;;;6.20;1.83;;;5.70;99.90;;;;;;5131947;27;20256;-73
2023/05/17 05:05:57;;;;;;;7.30;1.63;;;5.80;99.90;;;;;;5096008;27;20518;-73
2023/05/17 05:08:23;;;;;;;4.23;1.80;;;6.00;99.90;;;;;;5131630;27;20185;-73
2023/05/17 05:10:50;;;;;;;2.70;1.87;;;6.10;99.90;;;;;;5131462;27;20690;-73
2023/05/17 05:13:16;;;;;;;6.23;2.43;;;6.20;99.90;;;;;;5131527;27;20188;-73
2023/05/17 05:15:41;;;;;;;8.63;2.90;;;6.30;99.90;;;;;;5131662;27;20439;-73
2023/05/17 05:18:07;;;;;;;7.30;3.50;;;6.40;99.90;;;;;;5131334;27;20185;-74
2023/05/17 05:20:32;;;;;;;14.37;5.67;;;6.50;99.90;;;;;;5131513;27;20181;-73
2023/05/17 05:22:59;;;;;;;17.30;6.87;;;6.70;99.90;;;;;;5131502;27;20276;-73
2023/05/17 05:25:26;;;;;;;19.47;9.30;;;6.90;99.90;;;;;;5096164;27;20195;-72
2023/05/17 05:27:51;;;;;;;24.33;7.87;;;7.00;99.90;;;;;;5131253;27;20454;-72
2023/05/17 05:30:20;;;;;;;23.23;6.60;;;7.00;99.90;;;;;;5131235;27;20860;-73
2023/05/17 05:32:48;;;;;;;12.17;6.50;;;7.30;99.90;;;;;;5131009;27;20209;-73
2023/05/17 05:35:13;;;;;;;14.63;4.63;;;7.40;99.90;;;;;;5130652;27;20796;-73
2023/05/17 05:37:40;;;;;;;8.03;3.50;;;7.50;99.90;;;;;;5131043;27;20430;-74
2023/05/17 05:40:07;;;;;;;13.07;4.60;;;7.60;99.90;;;;;;5130821;27;20226;-73
2023/05/17 05:42:33;;;;;;;4.97;2.70;;;7.80;99.90;;;;;;5112735;27;20760;-73
2023/05/17 05:44:59;;;;;;;6.60;2.73;;;7.90;99.90;;;;;;5131021;27;20925;-73
2023/05/17 05:47:24;;;;;;;8.93;2.73;;;8.10;99.90;;;;;;5130992;27;20692;-73
2023/05/17 05:49:50;;;;;;;6.57;2.27;;;8.20;99.90;;;;;;5130795;27;20622;-73
2023/05/17 05:52:16;;;;;;;3.63;2.00;;;8.30;99.90;;;;;;5130753;27;20294;-73
2023/05/17 05:54:41;;;;;;;6.07;1.87;;;8.40;99.90;;;;;;5130775;27;20238;-75
2023/05/17 05:57:07;;;;;;;9.37;2.30;;;8.50;99.90;;;;;;5130643;27;20229;-73
2023/05/17 05:59:32;;;;;;;6.40;1.90;;;8.60;99.90;;;;;;5130721;27;20952;-74
2023/05/17 06:01:58;;;;;;;4.73;2.03;;;8.70;99.90;;;;;;5130605;27;20275;-71
2023/05/17 06:04:24;;;;;;;7.00;2.10;;;8.80;99.90;;;;;;5095461;27;20185;-72
2023/05/17 06:06:50;;;;;;;6.00;1.90;;;9.00;99.90;;;;;;5130314;27;20220;-72
2023/05/17 06:09:15;;;;;;;2.50;2.23;;;9.10;99.90;;;;;;5130760;27;20225;-74
2023/05/17 06:11:41;;;;;;;5.90;2.17;;;9.20;99.90;;;;;;5130270;27;20205;-73
2023/05/17 06:14:07;;;;;;;9.20;2.37;;;9.30;99.90;;;;;;5094794;27;20645;-72
2023/05/17 06:16:33;;;;;;;5.57;2.10;;;9.30;99.90;;;;;;5129825;27;20204;-72
2023/05/17 06:18:59;;;;;;;6.00;2.20;;;9.40;99.90;;;;;;5130547;27;20187;-73
2023/05/17 06:21:24;;;;;;;3.47;1.57;;;9.50;99.90;;;;;;5130384;27;20721;-72
2023/05/17 06:23:51;;;;;;;12.87;2.13;;;9.60;99.90;;;;;;5129850;27;20479;-73
2023/05/17 06:26:16;;;;;;;3.47;1.87;;;9.70;99.90;;;;;;5130071;27;20675;-73
2023/05/17 06:28:42;;;;;;;2.63;1.47;;;9.80;99.90;;;;;;5129664;27;20446;-73
2023/05/17 06:31:07;;;;;;;7.00;2.10;;;9.80;99.90;;;;;;5129880;27;20554;-73
2023/05/17 06:33:33;;;;;;;6.60;2.13;;;10.00;99.90;;;;;;5129989;27;20260;-73
2023/05/17 06:35:59;;;;;;;3.60;1.50;;;10.00;99.90;;;;;;5111691;27;20201;-72
2023/05/17 06:38:25;;;;;;;4.67;1.80;;;10.10;99.90;;;;;;5129933;27;20181;-73
2023/05/17 06:40:52;;;;;;;3.90;1.57;;;10.20;99.90;;;;;;5129721;27;20181;-73
2023/05/17 06:43:18;;;;;;;8.93;2.77;;;10.30;99.90;;;;;;5111140;27;20506;-74
2023/05/17 06:45:43;;;;;;;7.47;2.17;;;10.40;99.90;;;;;;5111095;27;21007;-73
2023/05/17 06:48:09;;;;;;;4.60;2.03;;;10.40;99.90;;;;;;5129886;27;20205;-73
2023/05/17 06:50:35;;;;;;;6.80;1.70;;;10.60;99.90;;;;;;5129667;27;20181;-72
2023/05/17 06:53:01;;;;;;;7.37;2.07;;;10.60;99.90;;;;;;5129483;27;20693;-72
2023/05/17 06:55:26;;;;;;;5.33;2.17;;;10.90;99.90;;;;;;5129452;27;20721;-73
2023/05/17 06:57:52;;;;;;;5.80;2.60;;;11.00;99.90;;;;;;5111362;27;20637;-73
2023/05/17 07:00:18;;;;;;;10.70;2.30;;;11.20;99.90;;;;;;5129587;27;20178;-72
2023/05/17 07:02:43;;;;;;;4.90;2.07;;;11.10;99.90;;;;;;5129585;27;20560;-72
2023/05/17 07:05:09;;;;;;;10.23;2.80;;;11.30;99.90;;;;;;5129464;27;20422;-73
2023/05/17 07:07:35;;;;;;;12.37;2.00;;;11.40;99.90;;;;;;5129354;27;20240;-73
2023/05/17 07:10:00;;;;;;;3.90;2.40;;;11.60;99.90;;;;;;5129491;27;20236;-73
2023/05/17 07:12:26;;;;;;;6.70;2.17;;;11.70;99.90;;;;;;5129036;27;20216;-73
2023/05/17 07:14:51;;;;;;;9.70;2.67;;;11.50;99.90;;;;;;5129002;27;20186;-73
2023/05/17 07:17:17;;;;;;;5.73;2.10;;;11.40;99.90;;;;;;5128946;27;20213;-72
2023/05/17 07:19:43;;;;;;;2.40;1.90;;;11.50;99.90;;;;;;5128887;27;20179;-73
2023/05/17 07:22:08;;;;;;;2.40;1.97;;;11.70;99.90;;;;;;5129153;27;20546;-73
2023/05/17 07:24:34;;;;;;;9.87;2.47;;;11.60;99.90;;;;;;5129148;27;20245;-73
2023/05/17 07:27:00;;;;;;;14.40;2.80;;;11.70;99.90;;;;;;5110445;27;20453;-73
2023/05/17 07:29:26;;;;;;;5.47;2.23;;;11.80;99.90;;;;;;5110284;28;20419;-73
2023/05/17 07:31:51;;;;;;;6.63;2.30;;;11.90;99.90;;;;;;5129185;28;20565;-72
2023/05/17 07:34:17;;;;;;;8.00;1.93;;;12.00;99.90;;;;;;5129011;28;20218;-73
2023/05/17 07:36:42;;;;;;;4.07;2.10;;;12.10;99.90;;;;;;5110465;28;20208;-73
2023/05/17 07:39:08;;;;;;;6.30;2.13;;;12.20;99.90;;;;;;5128749;28;20690;-73
2023/05/17 07:41:35;;;;;;;10.30;2.33;;;12.10;99.90;;;;;;5128928;28;20229;-73
2023/05/17 07:44:01;;;;;;;4.97;2.40;;;11.90;99.90;;;;;;5110571;28;20436;-73
2023/05/17 07:46:26;;;;;;;6.00;2.23;;;11.80;99.90;;;;;;5128872;27;20816;-73
2023/05/17 07:48:52;;;;;;;7.97;2.73;;;11.80;99.90;;;;;;5129157;28;20217;-73
2023/05/17 07:51:17;;;;;;;10.00;2.70;;;11.80;99.90;;;;;;5129025;27;20211;-74
2023/05/17 07:53:44;;;;;;;9.50;3.00;;;11.70;99.90;;;;;;5129126;28;20655;-73
2023/05/17 07:56:10;;;;;;;9.80;2.50;;;12.10;99.90;;;;;;5111110;28;20207;-72
2023/05/17 07:58:35;;;;;;;9.17;3.13;;;12.10;99.90;;;;;;5110930;28;20466;-73
2023/05/17 08:01:01;;;;;;;9.20;2.80;;;12.20;99.90;;;;;;5129764;28;20218;-75
2023/05/17 08:03:27;;;;;;;6.13;2.80;;;12.40;99.90;;;;;;5129772;28;20295;-72
2023/05/17 08:05:53;;;;;;;11.70;3.57;;;12.50;99.90;;;;;;5129777;27;20286;-72
2023/05/17 08:08:19;;;;;;;6.33;2.50;;;12.40;99.90;;;;;;5111683;28;20496;-72
2023/05/17 08:10:45;;;;;;;5.93;2.37;;;12.60;99.90;;;;;;5130080;27;20183;-73
2023/05/17 08:13:11;;;;;;;5.27;2.63;;;12.50;99.90;;;;;;5129517;28;21046;-72
2023/05/17 08:15:36;;;;;;;4.63;2.30;;;12.60;99.90;;;;;;5110749;27;20199;-73
2023/05/17 08:18:02;;;;;;;7.70;3.07;;;12.70;99.90;;;;;;5110825;28;20206;-73
2023/05/17 08:20:27;;;;;;;12.50;3.07;;;12.60;99.90;;;;;;5129339;28;20186;-74
2023/05/17 08:22:53;;;;;;;13.27;2.97;;;12.30;99.90;;;;;;5129213;28;20191;-72
2023/05/17 08:25:20;;;;;;;7.03;2.70;;;12.20;99.90;;;;;;5129136;27;20187;-73
2023/05/17 08:27:45;;;;;;;9.17;2.50;;;12.00;99.90;;;;;;5110777;28;20405;-73
2023/05/17 08:30:11;;;;;;;5.57;2.63;;;11.80;99.90;;;;;;5128839;28;20415;-73
2023/05/17 08:32:36;;;;;;;7.10;2.60;;;11.60;99.90;;;;;;5129409;28;20270;-72
2023/05/17 08:35:03;;;;;;;10.60;2.60;;;11.50;99.90;;;;;;5128823;27;20202;-73
2023/05/17 08:37:29;;;;;;;6.57;2.90;;;11.80;99.90;;;;;;5128859;27;20689;-72
2023/05/17 08:39:55;;;;;;;7.60;3.03;;;12.10;99.90;;;;;;5131174;27;20416;-72
2023/05/17 08:42:24;;;;;;;7.10;2.83;;;12.10;99.90;;;;;;5132719;27;20443;-72
2023/05/17 08:44:51;;;;;;;4.03;2.17;;;11.90;99.90;;;;;;5114407;27;20191;-73
2023/05/17 08:47:24;;;;;;;8.30;3.33;;;11.90;99.90;;;;;;5132395;27;20968;-73
2023/05/17 08:49:53;;;;;;;11.87;3.93;;;12.00;99.90;;;;;;5132253;27;20510;-73
2023/05/17 08:52:20;;;;;;;14.10;3.07;;;12.00;99.90;;;;;;5132055;27;20515;-71
2023/05/17 08:54:46;;;;;;;6.57;2.93;;;12.10;99.90;;;;;;5132097;27;20429;-73
2023/05/17 08:57:13;;;;;;;5.07;2.70;;;12.00;99.90;;;;;;5131807;27;20448;-73
2023/05/17 08:59:40;;;;;;;7.87;3.30;;;12.20;99.90;;;;;;5131602;27;20646;-74
2023/05/17 09:02:06;;;;;;;8.70;2.80;;;12.10;99.90;;;;;;5112900;27;20436;-73
2023/05/17 09:04:32;;;;;;;7.93;3.00;;;12.10;99.90;;;;;;5096278;27;20430;-73
2023/05/17 09:06:57;;;;;;;10.50;3.23;;;12.10;99.90;;;;;;5131534;27;20202;-73
2023/05/17 09:09:24;;;;;;;4.10;2.63;;;12.20;99.90;;;;;;5131389;27;20792;-73
2023/05/17 09:11:50;;;;;;;9.63;3.13;;;12.30;99.90;;;;;;5131353;27;20753;-74
2023/05/17 09:14:16;;;;;;;10.17;2.57;;;12.40;99.90;;;;;;5131227;27;20426;-73
2023/05/17 09:16:42;;;;;;;12.80;3.37;;;12.40;99.90;;;;;;5112286;27;20449;-73
2023/05/17 09:19:14;;;;;;;5.10;2.97;;;12.50;99.90;;;;;;5112451;27;20428;-72
2023/05/17 09:21:39;;;;;;;5.10;2.87;;;12.40;99.90;;;;;;5131104;27;20517;-73
2023/05/17 09:24:05;;;;;;;7.37;3.20;;;12.30;99.90;;;;;;5130846;27;20433;-73
2023/05/17 09:26:42;;;;;;;6.10;3.23;;;12.30;99.90;;;;;;5130743;27;20678;-73
2023/05/17 09:29:14;;;;;;;7.87;3.67;;;12.10;99.90;;;;;;5131021;27;20412;-73
2023/05/17 09:31:41;;;;;;;8.90;3.20;;;12.20;99.90;;;;;;5130874;27;20468;-72
2023/05/17 09:34:07;;;;;;;7.63;3.00;;;12.10;99.90;;;;;;5130562;27;21206;-73
2023/05/17 09:36:36;;;;;;;8.57;3.13;;;12.30;99.90;;;;;;5130379;27;20515;-73
2023/05/17 09:39:09;;;;;;;12.07;3.43;;;12.30;99.90;;;;;;5130753;27;20561;-72
2023/05/17 09:41:46;;;;;;;10.30;3.87;;;12.50;99.90;;;;;;5130720;27;20460;-74
2023/05/17 09:44:12;;;;;;;7.10;2.93;;;12.60;99.90;;;;;;5130796;27;21160;-73
2023/05/17 09:46:44;;;;;;;8.87;3.40;;;12.70;99.90;;;;;;5112492;27;20491;-72
2023/05/17 09:49:11;;;;;;;11.37;4.13;;;12.80;99.90;;;;;;5130738;27;20421;-73
2023/05/17 09:51:41;;;;;;;6.77;3.70;;;13.10;99.90;;;;;;5129382;27;20457;-72
2023/05/17 09:54:07;;;;;;;9.70;3.90;;;13.30;99.90;;;;;;5130327;27;20503;-72
2023/05/17 09:56:34;;;;;;;5.50;3.67;;;13.40;99.90;;;;;;5130127;27;20549;-71
2023/05/17 09:59:03;;;;;;;6.67;3.50;;;13.30;99.90;;;;;;5130256;27;20646;-74
2023/05/17 10:01:30;;;;;;;8.40;3.67;;;13.20;99.90;;;;;;5130145;27;20433;-73
2023/05/17 10:04:01;;;;;;;12.73;3.27;;;13.30;99.90;;;;;;5130438;27;20426;-72
2023/05/17 10:06:29;;;;;;;10.60;3.30;;;14.10;99.90;;;;;;5111470;27;20450;-72
2023/05/17 10:08:56;;;;;;;9.27;3.47;;;15.30;99.90;;;;;;5130163;27;20453;-73
2023/05/17 10:11:32;;;;;;;5.13;2.73;;;16.00;99.90;;;;;;5130289;27;20469;-73
2023/05/17 10:14:22;;;;;;;4.30;3.07;;;15.70;99.90;;;;;;5130298;27;20404;-73
2023/05/17 10:16:49;;;;;;;7.10;3.33;;;15.10;99.90;;;;;;5130172;27;20480;-73
2023/05/17 10:19:15;;;;;;;9.47;3.23;;;14.90;99.90;;;;;;5129947;27;20520;-73
2023/05/17 10:21:42;;;;;;;6.33;3.20;;;14.70;99.90;;;;;;5111263;27;21013;-74
2023/05/17 10:24:10;;;;;;;8.47;3.77;;;14.30;99.90;;;;;;5129825;27;20464;-73
2023/05/17 10:26:35;;;;;;;7.77;3.37;;;14.00;99.90;;;;;;5110979;27;20567;-73
2023/05/17 10:29:03;;;;;;;7.47;2.67;;;13.90;99.90;;;;;;5129397;27;21207;-73
2023/05/17 10:31:29;;;;;;;9.03;3.50;;;13.80;99.90;;;;;;5129528;27;20208;-73
2023/05/17 10:33:55;;;;;;;6.93;3.40;;;13.70;99.90;;;;;;5131429;27;20424;-72
2023/05/17 10:36:23;;;;;;;5.97;3.37;;;13.70;99.90;;;;;;5130426;27;20991;-73
2023/05/17 10:38:50;;;;;;;6.00;3.50;;;13.60;99.90;;;;;;5130411;27;20437;-73
2023/05/17 10:41:18;;;;;;;4.63;3.37;;;13.40;99.90;;;;;;5129924;27;21017;-73
2023/05/17 10:43:45;;;;;;;4.80;2.90;;;13.40;99.90;;;;;;5129865;27;20421;-73
2023/05/17 10:46:14;;;;;;;11.40;3.83;;;13.30;99.90;;;;;;5129670;27;20446;-73
2023/05/17 10:48:40;;;;;;;5.13;3.37;;;13.20;99.90;;;;;;5111194;27;20501;-73
2023/05/17 10:51:06;;;;;;;6.10;3.23;;;13.30;99.90;;;;;;5129607;27;20459;-74
2023/05/17 10:53:32;;;;;;;4.87;3.23;;;13.30;99.90;;;;;;5129559;27;20429;-73
2023/05/17 10:55:58;;;;;;;7.20;3.23;;;13.30;99.90;;;;;;5129237;27;20438;-72
2023/05/17 10:58:27;;;;;;;6.47;3.20;;;13.30;99.90;;;;;;5111242;27;20953;-73
2023/05/17 11:00:53;;;;;;;8.10;3.27;;;13.10;99.90;;;;;;5129259;27;20254;-72
2023/05/17 11:03:29;;;;;;;8.13;3.20;;;13.00;99.90;;;;;;5129931;27;20489;-73
2023/05/17 11:06:19;;;;;;;3.50;2.90;;;13.10;99.90;;;;;;5132467;27;20441;-73
2023/05/17 11:09:05;;;;;;;8.77;3.27;;;13.30;99.90;;;;;;5111251;27;20463;-73
2023/05/17 11:11:30;;;;;;;5.70;2.70;;;13.40;99.90;;;;;;5130764;27;20992;-72
2023/05/17 11:13:56;;;;;;;6.50;2.43;;;13.60;99.90;;;;;;5131100;27;20421;-74
2023/05/17 11:16:33;;;;;;;10.60;3.03;;;13.70;99.90;;;;;;5131466;27;20203;-73
2023/05/17 11:19:06;;;;;;;6.60;3.00;;;13.60;99.90;;;;;;5130746;27;20405;-72
2023/05/17 11:21:32;;;;;;;4.17;2.17;;;13.40;99.90;;;;;;5131321;27;20424;-72
2023/05/17 11:24:02;;;;;;;4.73;2.97;;;13.50;99.90;;;;;;5131551;27;20413;-71
2023/05/17 11:26:32;;;;;;;4.53;2.80;;;13.50;99.90;;;;;;5112721;27;20215;-72
2023/05/17 11:29:11;;;;;;;4.83;2.97;;;13.60;99.90;;;;;;5131004;27;20558;-72
2023/05/17 11:31:43;;;;;;;3.87;2.40;;;13.70;99.90;;;;;;5131360;27;20469;-72
2023/05/17 11:34:10;;;;;;;10.20;4.50;;;13.70;99.90;;;;;;5113004;28;20453;-71
2023/05/17 11:36:54;;;;;;;7.40;3.00;;;13.70;99.90;;;;;;5131406;27;20437;-71
2023/05/17 11:39:22;;;;;;;6.63;3.07;;;13.60;99.90;;;;;;5112915;28;20425;-72
2023/05/17 11:41:53;;;;;;;8.30;3.90;;;13.60;99.90;;;;;;5130534;27;20453;-72
2023/05/17 11:44:37;;;;;;;12.90;3.30;;;13.60;99.90;;;;;;5130995;28;20423;-73
2023/05/17 11:47:04;;;;;;;6.50;2.80;;;13.60;99.90;;;;;;5111988;28;20446;-71
2023/05/17 11:49:32;;;;;;;6.43;2.83;;;13.60;99.90;;;;;;5130466;28;20451;-71
2023/05/17 11:51:58;;;;;;;4.87;2.73;;;13.90;99.90;;;;;;5111573;28;20473;-72
2023/05/17 11:54:24;;;;;;;6.30;3.30;;;14.60;99.90;;;;;;5112697;28;20418;-72
2023/05/17 11:56:52;;;;;;;10.67;3.20;;;14.90;99.90;;;;;;5131263;27;20438;-71
2023/05/17 11:59:19;;;;;;;6.63;3.10;;;14.80;99.90;;;;;;5130945;28;20417;-73
2023/05/17 12:01:46;;;;;;;8.03;3.17;;;14.50;99.90;;;;;;5131433;28;20429;-73
2023/05/17 12:04:11;;;;;;;4.03;2.60;;;14.30;99.90;;;;;;5130235;28;20422;-72
2023/05/17 12:06:37;;;;;;;9.70;3.97;;;14.10;99.90;;;;;;5130128;27;20465;-72
2023/05/17 12:09:04;;;;;;;5.17;3.40;;;13.90;99.90;;;;;;5131148;28;20185;-72
2023/05/17 12:11:30;;;;;;;5.07;3.17;;;13.80;99.90;;;;;;5128447;27;20453;-72
2023/05/17 12:13:56;;;;;;;11.00;4.00;;;13.70;99.90;;;;;;5128890;27;20940;-72
2023/05/17 12:16:22;;;;;;;4.83;3.20;;;14.10;99.90;;;;;;5131968;27;20193;-73
2023/05/17 12:18:50;;;;;;;6.00;3.13;;;14.20;99.90;;;;;;5132097;27;20184;-72
2023/05/17 12:21:20;;;;;;;6.20;3.30;;;14.20;99.90;;;;;;5131727;27;20433;-72
2023/05/17 12:23:49;;;;;;;6.60;3.80;;;14.30;99.90;;;;;;5131638;27;20438;-71
2023/05/17 12:26:23;;;;;;;4.20;2.80;;;14.10;99.90;;;;;;5131424;27;20430;-73
2023/05/17 12:28:59;;;;;;;6.27;3.57;;;14.00;99.90;;;;;;5131457;27;20863;-73
2023/05/17 12:31:31;;;;;;;6.37;3.30;;;13.70;99.90;;;;;;5131367;27;20544;-73
2023/05/17 12:33:58;;;;;;;6.13;4.03;;;13.60;99.90;;;;;;5131516;27;20450;-73
2023/05/17 12:36:26;;;;;;;11.27;3.87;;;13.80;99.90;;;;;;5131151;27;20449;-73
2023/05/17 12:38:52;;;;;;;7.63;3.90;;;14.00;99.90;;;;;;5131348;27;21206;-74
2023/05/17 12:41:21;;;;;;;6.50;4.13;;;14.40;99.90;;;;;;5131013;27;20975;-73
2023/05/17 12:43:48;;;;;;;4.97;3.13;;;15.00;99.90;;;;;;5131407;27;20422;-73
2023/05/17 12:46:19;;;;;;;9.63;4.00;;;15.20;99.90;;;;;;5131016;27;20438;-73
2023/05/17 12:48:46;;;;;;;5.47;3.33;;;15.10;99.90;;;;;;5112493;27;20434;-73
2023/05/17 12:51:12;;;;;;;6.07;3.53;;;14.70;99.90;;;;;;5130811;27;20487;-73